Terminal Aerodrome Forecast
Issued by NWS

Home | Current Version | Previous Version | Text Only | Print | Product List | Glossary On
Versions: 1 2 3 4 5 6 7 8 9 10 11 12 13 14 15 16 17 18 19 20 21 22 23 24
175
FTAK31 PAJN 032337
TAFAJN
TAF
PAJN 032337Z 0400/0424 07006KT P6SM -SHSN FEW002 SCT010 OVC035
      TEMPO 0400/0404 1SM -SHSN SCT002 SCT006 OVC010
     FM040400 07006KT 3SM -SHSN BKN010 OVC040
      TEMPO 0404/0406 P6SM NSW SCT010 BKN040 BKN060
     FM041200 07010KT P6SM VCSH SCT010 BKN025 BKN040
     FM041700 07015KT P6SM SCT020 SCT040 WS020/07030KT=

USA.gov is the U.S. government's official web portal to all federal, state and local government web resources and services.